Willow, NY (12495)

8:05 AM EST on February 10, 2016 (GMT -0500)
Willow, NY | | Change Station
CLOSE
Current Station
Personal Weather Station
Location: Willow, NY
Elevation: 1033 ft
Nearby Weather Stations

Elev 1033 ft 42.07 °N, 74.22 °W | Updated 8 minutes ago

Overcast
Overcast
26.5 °F
Feels Like 26 °F
N
0.0
Wind Variable Wind from NW
Gusts 0.0 mph

Today
High -- | Low -- °F
--% Chance of Precip.
Yesterday
High -- | Low -- °F
Precip. -- in
Pressure 29.59 in
Visibility 1.2 miles
Clouds Mostly Cloudy 1100 ft
Overcast 4500 ft
Windchill 26 °F
Dew Point 7 °F
Humidity 43%
Rainfall 0.00 in
Snow Depth Not available.
7:00 AM 5:22 PM
Waxing Crescent, 5% visible
METAR KPOU 101253Z 00000KT 1 1/4SM BKN011 OVC045 00/M02 A2959 RMK AO2 SLP018 T00001017
Pressure 29.59 in
Visibility 1.2 miles
Clouds Mostly Cloudy 1100 ft
Overcast 4500 ft
Windchill 26 °F
Dew Point 7 °F
Humidity 43%
Rainfall 0.00 in
Snow Depth Not available.
7:00 AM 5:22 PM
Waxing Crescent, 5% visible
METAR KPOU 101253Z 00000KT 1 1/4SM BKN011 OVC045 00/M02 A2959 RMK AO2 SLP018 T00001017

10-Day Weather Forecast

Almanac

Astronomy

Feb. 10, 2016 Rise Set
Actual Time
Civil Twilight
Nautical Twilight
Astronomical Twilight
Moon
Length of Visible Light
Length of Day
Tomorrow will be .
, % of the Moon is Illuminated

Today's Extremes

State Highs State Lows

Community

WunderPhotos

Upload Photos

1,891,838 photos uploaded!

WunderBlog® & News

Nearby

Air Quality

  Air Quality AQ Index Pollutant
Not available.

Snow Depth

Station Depth Elevation

Earthquake Activity

City Distance Mag. Time & Date
Minimum magnitude displayed is 2.5.

Coastal Water Temperatures

Place Temperature

Stations

Nearby Weather Stations

Station Location Temp. Windchill Dew Point Humidity Wind Precip. Elev Updated Type
                   

Watches & Warnings

There are currently no watches in effect.